Leimert Park, California
Current Conditions -  °F | °C
As of 5:47 PM on Saturday 22 Nov 2014 (Local Time) from KCQT Reporting Station
Clear Clear  
Wind Chill: 64°   Ceiling: Unl
Heat Index: 64°   Visibility: 10mi
Dew Point: 53°   Wind: 0mph
Humidity: 67%   Direction: NA
Pressure: 30"   Gusts: NA
Location:  34.0092°N, 118.347°W
Report Text: KCQT 230147Z AUTO 00000KT 10SM CLR 18/12 A3000 RMK AO2 SLP159 T01780117
Loading
Personal Weather Stations






























Interactive Weather Map New forecast layout! Learn more

10-Day Weather Forecast

Advertisements
Track Severe Weather on mobile